Time;durP1;ratioP1;P1;durP2;ratioP2;P2;SDS_P1;SDS_P2;PMS_P1;PMS_P2;Temp;Humidity;BMP_temperature;BMP_pressure;BME280_temperature;BME280_humidity;BME280_pressure;Samples;Min_cycle;Max_cycle;Signal;HPM_P1;HPM_P2
2023/04/08 00:01:07;;;;;;;8.40;7.03;;;7.70;97.80;;;7.21;69.38;101612.13;5096651;28;20287;-75
2023/04/08 00:03:39;;;;;;;7.57;6.77;;;7.80;97.70;;;7.07;70.04;101604.34;5096237;28;20193;-75
2023/04/08 00:06:11;;;;;;;6.87;6.10;;;7.70;97.90;;;7.14;70.38;101597.59;5096067;28;20603;-75
2023/04/08 00:08:43;;;;;;;9.00;6.80;;;7.70;97.90;;;7.13;70.27;101606.53;5096203;28;20657;-75
2023/04/08 00:11:14;;;;;;;7.00;6.30;;;7.70;97.90;;;7.12;70.08;101605.69;5096397;28;20656;-75
2023/04/08 00:13:46;;;;;;;8.03;6.10;;;7.70;98.00;;;7.16;69.72;101614.28;5096392;28;20196;-75
2023/04/08 00:16:20;;;;;;;7.83;6.63;;;7.70;97.90;;;7.15;70.28;101612.59;5096241;28;20231;-75
2023/04/08 00:18:51;;;;;;;7.20;6.10;;;7.70;98.00;;;7.17;70.45;101617.81;5096260;28;20587;-75
2023/04/08 00:21:24;;;;;;;8.57;6.40;;;7.80;97.90;;;7.06;70.97;101618.63;5096259;28;20200;-75
2023/04/08 00:23:55;;;;;;;7.63;6.77;;;7.70;98.10;;;7.11;71.64;101617.31;5096432;28;20196;-75
2023/04/08 00:26:27;;;;;;;7.13;6.43;;;7.70;98.50;;;7.10;71.14;101617.44;5095895;28;20228;-75
2023/04/08 00:28:59;;;;;;;7.43;6.37;;;7.60;98.30;;;7.02;72.38;101615.34;5096121;28;20193;-75
2023/04/08 00:31:32;;;;;;;8.83;6.77;;;7.50;98.90;;;6.97;72.79;101619.31;5095726;28;20197;-75
2023/04/08 00:34:04;;;;;;;8.33;6.60;;;7.50;99.30;;;6.88;73.71;101612.03;5096014;28;20193;-75
2023/04/08 00:36:37;;;;;;;7.53;6.70;;;7.50;99.70;;;6.96;73.99;101614.94;5095563;28;20704;-75
2023/04/08 00:39:09;;;;;;;8.13;6.40;;;7.50;99.70;;;6.96;73.60;101613.16;5096674;28;20189;-75
2023/04/08 00:41:41;;;;;;;7.03;6.27;;;7.60;99.80;;;6.97;73.63;101614.84;5095817;28;20189;-75
2023/04/08 00:44:13;;;;;;;7.67;6.87;;;7.60;99.50;;;7.00;73.59;101611.09;5095813;28;20189;-75
2023/04/08 00:46:47;;;;;;;7.90;6.60;;;7.60;99.90;;;6.96;73.51;101617.63;5095410;28;20228;-75
2023/04/08 00:49:19;;;;;;;7.30;6.43;;;7.50;99.50;;;6.98;73.07;101618.38;5095712;28;20185;-75
2023/04/08 00:51:51;;;;;;;7.27;6.37;;;7.50;99.70;;;6.88;74.85;101606.72;5095674;28;20185;-75
2023/04/08 00:54:22;;;;;;;8.67;6.87;;;7.50;99.90;;;6.92;75.02;101609.00;5095647;28;20193;-75
2023/04/08 00:56:54;;;;;;;9.63;6.80;;;7.50;99.90;;;6.93;75.41;101602.72;5095543;28;20224;-75
2023/04/08 00:59:27;;;;;;;7.70;6.90;;;7.50;99.90;;;6.97;75.22;101614.00;5095168;28;20237;-75
2023/04/08 01:02:12;;;;;;;7.53;6.70;;;7.50;99.90;;;6.93;73.91;101613.38;5095094;28;20668;-75
2023/04/08 01:04:55;;;;;;;7.63;6.50;;;7.60;99.90;;;6.85;74.23;101604.28;5095083;28;20631;-75
2023/04/08 01:07:33;;;;;;;7.90;6.77;;;7.40;99.90;;;6.88;75.28;101614.69;5095377;28;20243;-75
2023/04/08 01:10:13;;;;;;;7.87;6.83;;;7.40;99.90;;;6.85;75.29;101614.94;5095320;28;20196;-75
2023/04/08 01:12:53;;;;;;;7.30;6.43;;;7.40;99.90;;;6.84;74.63;101608.75;5094875;28;20660;-75
2023/04/08 01:15:26;;;;;;;8.20;7.10;;;7.50;99.90;;;6.84;74.81;101615.88;5095431;28;20193;-75
2023/04/08 01:18:05;;;;;;;10.40;7.50;;;7.40;99.90;;;6.78;75.08;101614.50;5094658;28;20727;-75
2023/04/08 01:20:38;;;;;;;9.73;7.53;;;7.40;99.90;;;6.83;75.60;101622.16;5095334;28;20193;-75
2023/04/08 01:23:23;;;;;;;9.50;7.07;;;7.50;99.90;;;6.76;75.01;101618.25;5094624;28;20587;-75
2023/04/08 01:25:59;;;;;;;9.77;7.83;;;7.40;99.90;;;6.73;75.76;101621.16;5094882;28;20189;-75
2023/04/08 01:28:34;;;;;;;8.77;7.03;;;7.40;99.90;;;6.75;75.91;101611.22;5094718;28;20277;-75
2023/04/08 01:31:07;;;;;;;8.63;7.00;;;7.40;99.90;;;6.69;76.93;101609.91;5094937;28;20199;-75
2023/04/08 01:33:39;;;;;;;9.53;7.50;;;7.30;99.90;;;6.63;76.87;101599.72;5094857;28;20217;-75
2023/04/08 01:36:12;;;;;;;10.30;7.37;;;7.20;99.90;;;6.68;76.39;101596.72;5094701;28;20228;-75
2023/04/08 01:38:47;;;;;;;9.77;7.97;;;7.30;99.90;;;6.59;76.86;101591.09;5094820;28;20193;-75
2023/04/08 01:41:22;;;;;;;11.20;7.53;;;7.30;99.90;;;6.67;76.33;101581.72;5094673;28;20237;-75
2023/04/08 01:43:56;;;;;;;9.27;7.60;;;7.30;99.90;;;6.73;76.44;101589.22;5094616;28;20197;-75
2023/04/08 01:46:29;;;;;;;10.23;7.87;;;7.40;99.90;;;6.62;76.64;101577.56;5094436;28;20227;-75
2023/04/08 01:49:04;;;;;;;10.77;7.97;;;7.30;99.90;;;6.50;77.23;101583.81;5094255;28;20217;-75
2023/04/08 01:51:37;;;;;;;10.20;7.73;;;7.20;99.90;;;6.55;76.39;101599.41;5094164;28;20645;-75
2023/04/08 01:54:09;;;;;;;10.50;8.53;;;7.20;99.90;;;6.48;77.35;101596.38;5094091;28;20712;-75
2023/04/08 01:56:46;;;;;;;10.57;8.07;;;7.10;99.90;;;6.52;76.90;101600.50;5094291;28;20229;-75
2023/04/08 01:59:23;;;;;;;10.00;7.80;;;7.20;99.90;;;6.56;76.54;101598.47;5093985;28;20223;-75
2023/04/08 02:01:57;;;;;;;10.27;7.93;;;7.20;99.90;;;6.49;77.09;101600.75;5093992;28;20641;-75
2023/04/08 02:04:29;;;;;;;9.60;7.47;;;7.10;99.90;;;6.49;77.01;101598.06;5094213;28;20193;-75
2023/04/08 02:07:04;;;;;;;9.97;8.20;;;7.10;99.90;;;6.47;77.04;101594.66;5093700;28;20689;-75
2023/04/08 02:09:36;;;;;;;9.73;7.57;;;7.10;99.90;;;6.50;77.43;101588.28;5094142;28;20184;-75
2023/04/08 02:12:09;;;;;;;9.40;6.90;;;7.10;99.90;;;6.45;76.76;101585.97;5094126;28;20531;-75
2023/04/08 02:14:41;;;;;;;10.73;7.40;;;7.10;99.90;;;6.46;77.24;101590.31;5094635;28;20194;-75
2023/04/08 02:17:19;;;;;;;11.00;8.30;;;7.10;99.90;;;6.51;76.89;101589.97;5093992;28;20217;-75
2023/04/08 02:19:59;;;;;;;9.77;7.83;;;7.20;99.90;;;6.35;77.61;101600.03;5094072;28;20195;-75
2023/04/08 02:22:41;;;;;;;10.63;7.03;;;7.00;99.90;;;6.47;77.49;101593.84;5093596;28;20547;-75
2023/04/08 02:25:17;;;;;;;11.57;7.30;;;7.10;99.90;;;6.50;77.36;101594.47;5094205;28;20193;-75
2023/04/08 02:27:52;;;;;;;12.00;7.77;;;7.10;99.90;;;6.49;76.98;101592.75;5094020;28;20231;-75
2023/04/08 02:30:25;;;;;;;12.17;8.30;;;7.10;99.90;;;6.47;77.35;101589.34;5094078;28;20185;-75
2023/04/08 02:32:58;;;;;;;10.47;8.13;;;7.10;99.90;;;6.50;76.64;101599.78;5094053;28;20212;-75
2023/04/08 02:35:32;;;;;;;10.27;8.53;;;7.10;99.90;;;6.53;76.52;101604.03;5093429;28;20235;-75
2023/04/08 02:38:04;;;;;;;10.07;7.80;;;7.20;99.90;;;6.46;77.10;101603.63;5093649;28;20316;-75
2023/04/08 02:40:37;;;;;;;8.23;6.87;;;7.10;99.90;;;6.39;77.66;101597.06;5093672;28;20201;-75
2023/04/08 02:43:10;;;;;;;11.20;8.67;;;7.00;99.90;;;6.38;77.85;101606.00;5093718;28;20196;-75
2023/04/08 02:45:43;;;;;;;9.87;8.17;;;7.00;99.90;;;6.41;77.40;101605.75;5094181;28;20196;-75
2023/04/08 02:48:15;;;;;;;11.13;8.33;;;7.10;99.90;;;6.39;78.09;101618.34;5093558;28;20208;-75
2023/04/08 02:50:47;;;;;;;11.47;8.80;;;7.10;99.90;;;6.39;78.00;101618.34;5093604;28;20203;-75
2023/04/08 02:53:19;;;;;;;10.70;8.47;;;7.10;99.90;;;6.39;78.08;101618.34;5093558;28;20198;-75
2023/04/08 02:55:51;;;;;;;11.67;8.60;;;7.10;99.90;;;6.38;78.12;101613.97;5093640;28;20185;-75
2023/04/08 02:58:24;;;;;;;14.40;9.50;;;7.00;99.90;;;6.38;77.80;101616.63;5093195;28;20215;-75
2023/04/08 03:00:56;;;;;;;12.37;9.73;;;7.00;99.90;;;6.33;78.50;101624.09;5093531;28;20189;-75
2023/04/08 03:03:28;;;;;;;12.10;9.13;;;7.00;99.90;;;6.29;78.46;101619.97;5093500;28;20244;-75
2023/04/08 03:06:01;;;;;;;11.10;8.63;;;7.00;99.90;;;6.33;78.47;101623.25;5093086;28;20246;-75
2023/04/08 03:08:33;;;;;;;11.53;9.10;;;7.00;99.90;;;6.35;78.38;101622.16;5093307;28;20205;-75
2023/04/08 03:11:04;;;;;;;12.40;9.40;;;7.00;99.90;;;6.35;78.30;101629.28;5094628;28;20193;-75
2023/04/08 03:13:37;;;;;;;14.97;8.97;;;7.00;99.90;;;6.35;78.38;101622.16;5097598;28;20196;-75
2023/04/08 03:16:11;;;;;;;11.70;9.53;;;7.00;99.90;;;6.36;78.42;101618.56;5097104;28;20711;-75
2023/04/08 03:18:43;;;;;;;11.03;8.87;;;7.00;99.90;;;6.33;78.72;101623.25;5097472;28;20189;-75
2023/04/08 03:21:14;;;;;;;10.17;8.73;;;7.00;99.90;;;6.36;78.50;101637.19;5097424;28;20188;-75
2023/04/08 03:23:46;;;;;;;12.83;8.70;;;7.00;99.90;;;6.40;78.28;101630.69;5097379;28;20222;-75
2023/04/08 03:26:18;;;;;;;13.47;9.50;;;7.10;99.90;;;6.29;78.91;101638.59;5097324;28;20220;-75
2023/04/08 03:28:52;;;;;;;13.90;9.77;;;7.00;99.90;;;6.23;78.97;101639.03;5097180;28;20212;-75
2023/04/08 03:31:24;;;;;;;15.40;10.43;;;6.90;99.90;;;6.22;79.14;101637.31;5097197;28;20546;-75
2023/04/08 03:33:56;;;;;;;12.83;10.10;;;6.90;99.90;;;6.28;78.76;101641.34;5097217;28;20189;-75
2023/04/08 03:36:28;;;;;;;13.93;10.07;;;7.00;99.90;;;6.29;79.23;101641.25;5097092;28;20231;-75
2023/04/08 03:39:00;;;;;;;14.43;10.27;;;7.00;99.90;;;6.33;78.56;101642.72;5097121;28;20181;-75
2023/04/08 03:41:31;;;;;;;15.00;10.77;;;7.10;99.90;;;6.24;79.65;101640.72;5096987;28;20200;-75
2023/04/08 03:44:05;;;;;;;17.27;11.40;;;6.90;99.90;;;6.12;80.08;101633.63;5096957;28;20189;-75
2023/04/08 03:46:37;;;;;;;17.53;12.00;;;6.90;99.90;;;6.03;80.72;101631.59;5096835;28;20315;-75
2023/04/08 03:49:09;;;;;;;18.63;12.73;;;6.80;99.90;;;5.98;80.94;101631.97;5096756;28;20254;-75
2023/04/08 03:51:41;;;;;;;18.80;13.00;;;6.70;99.90;;;6.04;80.72;101630.66;5096542;28;20536;-75
2023/04/08 03:54:13;;;;;;;17.97;12.53;;;6.80;99.90;;;6.01;81.34;101629.06;5096772;28;20193;-75
2023/04/08 03:56:45;;;;;;;18.93;13.27;;;6.70;99.90;;;6.05;81.01;101635.03;5096389;28;20705;-75
2023/04/08 03:59:18;;;;;;;18.07;13.07;;;6.80;99.90;;;6.11;81.07;101626.59;5096300;28;20213;-75
2023/04/08 04:01:50;;;;;;;21.00;12.77;;;6.80;99.90;;;6.13;80.62;101632.66;5096357;28;20707;-75
2023/04/08 04:04:22;;;;;;;18.73;12.70;;;6.80;99.90;;;6.18;80.62;101630.53;5096581;28;20193;-75
2023/04/08 04:06:55;;;;;;;21.53;13.40;;;6.90;99.90;;;6.16;81.13;101639.56;5096515;28;20309;-75
2023/04/08 04:09:27;;;;;;;22.27;13.87;;;6.90;99.90;;;6.06;81.27;101639.41;5096449;28;20213;-75
2023/04/08 04:11:59;;;;;;;24.33;14.70;;;6.80;99.90;;;5.99;82.27;101640.78;5096477;28;20197;-75
2023/04/08 04:14:32;;;;;;;25.67;14.17;;;6.70;99.90;;;5.90;82.75;101644.94;5096383;28;20193;-75
2023/04/08 04:17:04;;;;;;;22.07;14.90;;;6.60;99.90;;;5.90;82.76;101649.38;5095978;28;20228;-75
2023/04/08 04:19:35;;;;;;;23.47;14.50;;;6.60;99.90;;;5.94;82.35;101651.72;5096290;28;20185;-75
2023/04/08 04:22:07;;;;;;;22.30;14.47;;;6.70;99.90;;;5.90;82.47;101657.38;5095604;28;20578;-75
2023/04/08 04:24:39;;;;;;;23.10;14.67;;;6.60;99.90;;;5.82;82.96;101652.53;5096207;28;20197;-75
2023/04/08 04:27:11;;;;;;;20.23;14.40;;;6.60;99.90;;;5.80;82.95;101666.91;5096048;28;20228;-75
2023/04/08 04:29:44;;;;;;;21.80;14.73;;;6.60;99.90;;;5.81;82.59;101665.97;5096009;28;20221;-75
2023/04/08 04:32:16;;;;;;;21.90;15.17;;;6.60;99.90;;;5.86;83.38;101671.81;5096118;28;20185;-75
2023/04/08 04:34:48;;;;;;;20.73;14.43;;;6.60;99.90;;;5.95;82.58;101668.53;5096093;28;20189;-75
2023/04/08 04:37:20;;;;;;;21.03;14.23;;;6.70;99.90;;;5.87;82.93;101668.22;5095611;28;20715;-75
2023/04/08 04:39:52;;;;;;;21.10;14.63;;;6.60;99.90;;;5.92;82.63;101672.28;5095961;28;20239;-75
2023/04/08 04:42:24;;;;;;;20.73;15.10;;;6.60;99.90;;;5.90;83.07;101673.31;5095917;28;20198;-75
2023/04/08 04:44:57;;;;;;;23.10;14.47;;;6.60;99.90;;;5.95;82.07;101681.81;5095481;28;20196;-75
2023/04/08 04:47:31;;;;;;;26.50;15.50;;;6.70;99.90;;;5.86;82.74;101671.81;5095394;28;20225;-75
2023/04/08 04:50:03;;;;;;;19.93;13.83;;;6.60;99.90;;;5.98;82.09;101684.25;5096227;28;20213;-75
2023/04/08 04:52:35;;;;;;;22.23;14.27;;;6.70;99.90;;;6.02;82.64;101683.09;5095340;28;20189;-75
2023/04/08 04:55:08;;;;;;;22.43;14.33;;;6.70;99.90;;;6.04;81.93;101689.13;5095655;28;20295;-75
2023/04/08 04:57:40;;;;;;;21.70;15.00;;;6.80;99.90;;;5.99;82.46;101691.28;5095592;28;20236;-75
2023/04/08 05:00:15;;;;;;;22.87;14.47;;;6.70;99.90;;;6.05;82.41;101693.50;5095762;28;20185;-75
2023/04/08 05:02:48;;;;;;;24.00;14.73;;;6.70;99.90;;;6.01;82.42;101692.03;5095503;28;20192;-75
2023/04/08 05:05:20;;;;;;;22.13;14.57;;;6.70;99.90;;;5.92;82.75;101693.53;5095445;28;20190;-75
2023/04/08 05:07:52;;;;;;;22.90;14.50;;;6.60;99.90;;;6.01;82.13;101697.34;5095369;28;20225;-75
2023/04/08 05:10:25;;;;;;;20.50;14.40;;;6.70;99.90;;;5.90;82.54;101694.56;5095272;28;20208;-74
2023/04/08 05:12:57;;;;;;;21.47;14.77;;;6.60;99.90;;;5.94;82.88;101702.22;5095032;28;20189;-75
2023/04/08 05:15:30;;;;;;;23.67;14.93;;;6.70;99.90;;;6.00;82.66;101703.59;5094948;28;20641;-75
2023/04/08 05:18:02;;;;;;;21.50;14.20;;;6.70;99.90;;;6.01;82.42;101700.00;5095095;28;20224;-75
2023/04/08 05:20:34;;;;;;;23.80;14.80;;;6.80;99.90;;;6.02;82.53;101699.03;5095150;28;20242;-75
2023/04/08 05:23:06;;;;;;;19.07;13.93;;;6.70;99.90;;;5.96;83.18;101699.44;5095106;28;20189;-75
2023/04/08 05:25:38;;;;;;;22.47;14.93;;;6.60;99.90;;;5.95;82.63;101703.09;5095229;28;20280;-74
2023/04/08 05:28:11;;;;;;;20.53;14.13;;;6.70;99.90;;;5.99;82.61;101707.25;5094915;28;20232;-75
2023/04/08 05:30:48;;;;;;;20.97;14.07;;;6.70;99.90;;;6.04;82.07;101703.28;5094627;28;20188;-75
2023/04/08 05:33:20;;;;;;;17.50;12.87;;;6.80;99.90;;;5.87;82.35;101706.28;5093990;28;20220;-75
2023/04/08 05:35:52;;;;;;;20.00;13.83;;;6.70;99.90;;;5.90;82.62;101702.53;5094755;28;20188;-75
2023/04/08 05:38:24;;;;;;;17.63;12.67;;;6.60;99.90;;;5.90;82.58;101702.53;5094776;28;20326;-75
2023/04/08 05:40:56;;;;;;;18.30;13.37;;;6.60;99.90;;;5.87;82.60;101710.72;5095020;28;20188;-75
2023/04/08 05:43:28;;;;;;;19.40;14.00;;;6.60;99.90;;;5.88;82.65;101710.66;5094641;28;20210;-75
2023/04/08 05:46:05;;;;;;;19.53;13.60;;;6.60;99.90;;;5.88;82.61;101723.06;5094592;28;20188;-75
2023/04/08 05:48:38;;;;;;;18.33;13.47;;;6.60;99.90;;;5.88;82.55;101717.75;5094445;28;20192;-75
2023/04/08 05:51:13;;;;;;;21.07;14.00;;;6.60;99.90;;;5.77;83.31;101730.91;5094675;28;20633;-75
2023/04/08 05:53:45;;;;;;;19.73;13.47;;;6.50;99.90;;;5.81;83.46;101727.94;5094380;28;20204;-75
2023/04/08 05:56:17;;;;;;;17.97;13.97;;;6.50;99.90;;;5.76;83.61;101729.19;5094241;28;20727;-75
2023/04/08 05:58:49;;;;;;;18.03;12.67;;;6.50;99.90;;;5.82;82.82;101732.28;5094304;28;20213;-75
2023/04/08 06:01:23;;;;;;;20.27;13.67;;;6.60;99.90;;;5.87;82.71;101726.69;5094560;28;20192;-75
2023/04/08 06:03:55;;;;;;;17.37;12.83;;;6.60;99.90;;;5.89;82.59;101738.06;5094467;28;20197;-75
2023/04/08 06:06:27;;;;;;;18.63;13.83;;;6.60;99.90;;;5.84;82.89;101745.47;5094036;28;20274;-75
2023/04/08 06:08:59;;;;;;;18.57;13.67;;;6.60;99.90;;;5.80;83.26;101746.63;5094374;28;20223;-75
2023/04/08 06:11:31;;;;;;;20.40;13.67;;;6.60;99.90;;;5.83;82.95;101746.41;5094277;28;20193;-75
2023/04/08 06:14:03;;;;;;;17.53;13.43;;;6.60;99.90;;;5.77;83.22;101752.16;5094209;28;20184;-75
2023/04/08 06:16:36;;;;;;;18.90;13.97;;;6.50;99.90;;;5.73;84.02;101753.31;5094104;28;20246;-75
2023/04/08 06:19:08;;;;;;;17.73;13.83;;;6.50;99.90;;;5.73;83.85;101750.66;5093858;28;20562;-75
2023/04/08 06:21:40;;;;;;;18.03;13.27;;;6.50;99.90;;;5.78;83.60;101743.22;5094169;28;20189;-75
2023/04/08 06:24:12;;;;;;;17.17;14.07;;;6.50;99.90;;;5.83;83.31;101743.75;5094202;28;20196;-75
2023/04/08 06:26:44;;;;;;;19.23;14.23;;;6.60;99.90;;;5.73;84.11;101751.50;5094020;28;20240;-75
2023/04/08 06:29:16;;;;;;;19.23;14.03;;;6.50;99.90;;;5.75;83.92;101765.56;5093672;28;20212;-75
2023/04/08 06:31:49;;;;;;;20.77;13.83;;;6.50;99.90;;;5.82;83.81;101758.03;5094007;28;20287;-75
2023/04/08 06:34:21;;;;;;;19.60;14.10;;;6.50;99.90;;;5.87;83.74;101758.56;5094031;28;20224;-75
2023/04/08 06:36:53;;;;;;;18.53;13.43;;;6.60;99.90;;;5.94;83.08;101754.53;5094111;28;20231;-75
2023/04/08 06:39:24;;;;;;;18.97;14.00;;;6.70;99.90;;;5.97;83.40;101756.97;5093894;28;20185;-75
2023/04/08 06:41:57;;;;;;;18.93;14.50;;;6.70;99.90;;;5.94;83.50;101770.47;5093649;28;20645;-75
2023/04/08 06:44:29;;;;;;;18.23;13.83;;;6.70;99.90;;;5.96;83.06;101771.22;5093642;28;20189;-75
2023/04/08 06:47:02;;;;;;;20.23;14.63;;;6.70;99.90;;;5.92;83.71;101777.72;5093452;28;20227;-75
2023/04/08 06:49:34;;;;;;;20.53;14.10;;;6.70;99.90;;;5.99;82.99;101771.03;5093351;28;20205;-75
2023/04/08 06:52:06;;;;;;;19.53;14.63;;;6.80;99.90;;;5.96;83.28;101784.50;5093752;28;20188;-75
2023/04/08 06:54:38;;;;;;;23.67;16.37;;;6.70;99.90;;;5.88;83.74;101785.06;5093773;28;20197;-75
2023/04/08 06:57:10;;;;;;;20.90;15.40;;;6.60;99.90;;;5.92;83.65;101781.25;5093722;28;20224;-75
2023/04/08 06:59:42;;;;;;;20.13;13.70;;;6.70;99.90;;;5.91;83.14;101787.50;5093274;28;20212;-75
2023/04/08 07:02:15;;;;;;;20.67;15.10;;;6.70;99.90;;;5.90;83.90;101791.09;5093683;28;20193;-75
2023/04/08 07:04:47;;;;;;;20.20;13.90;;;6.60;99.90;;;5.94;83.27;101781.97;5093616;28;20185;-75
2023/04/08 07:07:19;;;;;;;22.13;15.13;;;6.70;99.90;;;5.98;84.03;101785.28;5093528;28;20234;-75
2023/04/08 07:09:51;;;;;;;23.80;15.80;;;6.80;99.90;;;6.02;83.98;101794.75;5093229;28;20590;-75
2023/04/08 07:12:22;;;;;;;22.80;14.37;;;6.80;99.90;;;6.01;84.09;101790.38;5093824;28;20227;-76
2023/04/08 07:14:54;;;;;;;21.33;14.77;;;6.80;99.90;;;5.99;83.93;101789.63;5093569;28;20185;-76
2023/04/08 07:17:27;;;;;;;24.60;16.33;;;6.70;99.90;;;6.00;83.63;101796.63;5093469;28;20224;-76
2023/04/08 07:19:59;;;;;;;22.07;15.27;;;6.80;99.90;;;6.01;84.14;101801.00;5093746;28;20196;-76
2023/04/08 07:22:31;;;;;;;20.33;14.10;;;6.80;99.90;;;6.05;83.47;101794.53;5093344;28;20189;-76
2023/04/08 07:25:03;;;;;;;18.73;13.83;;;6.80;99.90;;;6.09;83.11;101802.19;5093428;28;20189;-76
2023/04/08 07:27:35;;;;;;;20.50;15.60;;;6.80;99.90;;;6.10;83.37;101789.72;5093355;28;20229;-76
2023/04/08 07:30:08;;;;;;;20.50;13.80;;;6.90;99.90;;;6.03;83.99;101793.75;5093310;28;20209;-76
2023/04/08 07:32:41;;;;;;;19.60;14.83;;;6.80;99.90;;;5.99;84.36;101793.13;5093091;28;20185;-76
2023/04/08 07:35:13;;;;;;;22.43;16.10;;;6.80;99.90;;;6.05;83.93;101799.84;5093376;28;20197;-77
2023/04/08 07:37:44;;;;;;;21.87;15.33;;;6.80;99.90;;;6.06;84.14;101798.91;5093351;28;20225;-76
2023/04/08 07:40:16;;;;;;;23.90;16.10;;;6.80;99.90;;;6.07;84.34;101803.22;5093556;28;20196;-76
2023/04/08 07:42:48;;;;;;;25.50;16.17;;;6.80;99.90;;;6.06;84.30;101796.25;5093512;28;20193;-76
2023/04/08 07:45:20;;;;;;;23.67;15.93;;;6.80;99.90;;;6.14;84.16;101796.53;5093307;28;20192;-76
2023/04/08 07:47:53;;;;;;;24.67;16.50;;;6.90;99.90;;;6.13;84.20;101794.00;5094012;28;20229;-76
2023/04/08 07:50:25;;;;;;;25.13;15.90;;;6.90;99.90;;;6.14;83.66;101815.16;5093185;28;20205;-76
2023/04/08 07:52:57;;;;;;;24.40;16.07;;;6.90;99.90;;;6.19;83.73;101802.41;5093238;28;20238;-76
2023/04/08 07:55:33;;;;;;;23.67;16.00;;;7.00;99.90;;;6.18;83.76;101800.69;5093203;28;20192;-76
2023/04/08 07:58:05;;;;;;;22.97;15.23;;;7.00;99.90;;;6.18;84.31;101819.31;5095519;28;20322;-75
2023/04/08 08:00:37;;;;;;;25.40;16.67;;;6.90;99.90;;;6.18;83.65;101826.44;5096450;28;20236;-75
2023/04/08 08:03:10;;;;;;;24.53;16.60;;;6.90;99.90;;;6.21;83.84;101820.91;5096467;28;20193;-76
2023/04/08 08:05:41;;;;;;;25.20;16.27;;;7.00;99.90;;;6.26;83.70;101830.28;5097431;28;20188;-77
2023/04/08 08:08:15;;;;;;;24.33;16.47;;;7.00;99.90;;;6.28;83.21;101825.69;5096493;28;20632;-76
2023/04/08 08:10:48;;;;;;;24.23;16.43;;;7.00;99.90;;;6.27;83.26;101831.13;5096512;28;20578;-76
2023/04/08 08:13:22;;;;;;;29.03;17.63;;;7.10;99.90;;;6.21;84.15;101832.38;5096299;28;20213;-76
2023/04/08 08:15:56;;;;;;;28.27;16.93;;;7.00;99.90;;;6.30;83.86;101823.75;5096068;28;20189;-76
2023/04/08 08:18:29;;;;;;;28.20;17.20;;;7.10;99.90;;;6.32;83.63;101835.16;5096570;28;20193;-78
2023/04/08 08:21:03;;;;;;;24.10;15.57;;;7.10;99.90;;;6.33;83.41;101844.84;5096574;28;20189;-77
2023/04/08 08:23:36;;;;;;;25.97;16.07;;;7.00;99.90;;;6.19;83.65;101844.94;5096089;28;20189;-76
2023/04/08 08:26:09;;;;;;;23.97;15.77;;;7.00;99.90;;;6.24;83.90;101845.47;5096390;28;20193;-77
2023/04/08 08:28:41;;;;;;;23.57;16.07;;;7.00;99.90;;;6.28;84.04;101839.00;5096235;28;20206;-76
2023/04/08 08:31:15;;;;;;;20.30;14.37;;;7.10;99.90;;;6.34;83.06;101843.88;5095484;28;20271;-79
2023/04/08 08:33:48;;;;;;;25.00;15.13;;;7.10;99.90;;;6.38;83.14;101845.38;5096168;28;20295;-76
2023/04/08 08:36:21;;;;;;;17.43;13.27;;;7.10;99.90;;;6.45;82.61;101846.66;5094614;28;20224;-76
2023/04/08 08:38:53;;;;;;;23.30;15.03;;;7.20;99.90;;;6.40;82.36;101845.28;5096034;28;20197;-76
2023/04/08 08:41:25;;;;;;;20.00;14.43;;;7.20;99.90;;;6.41;82.69;101836.31;5096079;28;20189;-76
2023/04/08 08:43:57;;;;;;;21.97;13.97;;;7.20;99.90;;;6.39;83.19;101844.41;5096144;28;20207;-76
2023/04/08 08:46:28;;;;;;;20.93;14.13;;;7.20;99.90;;;6.48;82.79;101846.44;5096212;28;20260;-77
2023/04/08 08:49:02;;;;;;;23.37;15.23;;;7.20;99.90;;;6.53;82.67;101854.09;5095657;28;20197;-76
2023/04/08 08:51:34;;;;;;;21.20;14.27;;;7.30;99.90;;;6.56;82.46;101856.53;5095869;28;20216;-77
2023/04/08 08:54:07;;;;;;;21.27;14.90;;;7.30;99.90;;;6.61;82.27;101863.22;5095862;28;20216;-77
2023/04/08 08:56:39;;;;;;;20.57;14.27;;;7.40;99.90;;;6.65;82.29;101866.53;5095751;28;20221;-77
2023/04/08 08:59:11;;;;;;;21.77;14.97;;;7.40;99.90;;;6.66;82.62;101868.25;5095407;28;20212;-77
2023/04/08 09:01:43;;;;;;;21.63;14.70;;;7.40;99.90;;;6.72;82.60;101874.94;5095403;28;20528;-77
2023/04/08 09:04:19;;;;;;;21.37;14.20;;;7.50;99.90;;;6.75;82.22;101878.22;5095431;28;20630;-77
2023/04/08 09:07:08;;;;;;;26.47;16.50;;;7.50;99.90;;;6.70;82.32;101871.53;5095584;28;20328;-76
2023/04/08 09:09:53;;;;;;;22.97;15.80;;;7.50;99.90;;;6.69;82.45;101875.16;5095562;28;20196;-76
2023/04/08 09:12:30;;;;;;;23.03;15.13;;;7.40;99.90;;;6.68;82.39;101873.47;5095395;28;20213;-76
2023/04/08 09:15:11;;;;;;;23.47;15.70;;;7.40;99.90;;;6.68;82.60;101879.63;5095514;28;20191;-76
2023/04/08 09:17:43;;;;;;;24.17;15.47;;;7.40;99.90;;;6.69;82.64;101876.00;5095584;28;20224;-76
2023/04/08 09:20:17;;;;;;;22.63;14.97;;;7.40;99.90;;;6.70;82.32;101888.34;5095343;28;20273;-76
2023/04/08 09:23:04;;;;;;;23.90;16.03;;;7.50;99.90;;;6.74;82.36;101879.22;5094964;28;20554;-76
2023/04/08 09:25:37;;;;;;;22.80;15.60;;;7.50;99.90;;;6.71;82.27;101881.22;5095177;28;20567;-76
2023/04/08 09:28:20;;;;;;;22.83;15.23;;;7.50;99.90;;;6.74;81.70;101881.00;5094917;28;20232;-76
2023/04/08 09:30:51;;;;;;;25.20;16.27;;;7.50;99.90;;;6.78;82.12;101877.19;5095372;28;20205;-76
2023/04/08 09:33:32;;;;;;;19.80;14.20;;;7.50;99.90;;;6.82;81.79;101882.16;5095113;28;20246;-76
2023/04/08 09:36:05;;;;;;;22.97;15.27;;;7.60;99.90;;;6.88;81.56;101884.41;5095011;28;20193;-76
2023/04/08 09:38:37;;;;;;;23.47;14.23;;;7.60;99.90;;;6.91;81.53;101888.66;5094966;28;20253;-76
2023/04/08 09:41:15;;;;;;;22.60;15.47;;;7.60;99.90;;;6.97;81.16;101890.88;5095448;28;20186;-76
2023/04/08 09:43:56;;;;;;;21.67;15.27;;;7.70;99.90;;;7.00;81.39;101891.50;5094922;28;20192;-76
2023/04/08 09:46:33;;;;;;;21.77;15.70;;;7.70;99.90;;;7.00;81.23;101901.31;5094717;28;20315;-76
2023/04/08 09:49:13;;;;;;;23.70;15.93;;;7.70;99.90;;;6.98;81.39;101900.56;5094775;28;20185;-76
2023/04/08 09:51:56;;;;;;;27.00;15.63;;;7.70;99.90;;;7.01;81.54;101895.88;5094699;28;20254;-76
2023/04/08 09:54:37;;;;;;;20.70;15.60;;;7.80;99.90;;;7.05;81.50;101905.31;5094400;28;20195;-76
2023/04/08 09:57:21;;;;;;;22.43;16.27;;;7.80;99.90;;;7.06;81.54;101903.53;5094559;28;20228;-76
2023/04/08 10:00:12;;;;;;;20.53;13.77;;;7.80;99.90;;;7.07;81.26;101913.22;5094195;28;20582;-76
2023/04/08 10:02:55;;;;;;;21.07;15.00;;;7.80;99.90;;;7.01;81.22;101903.03;5094454;28;20203;-76
2023/04/08 10:05:30;;;;;;;22.50;15.33;;;7.80;99.90;;;7.05;81.35;101905.31;5094513;28;20275;-76
2023/04/08 10:08:03;;;;;;;20.20;14.60;;;7.80;99.90;;;7.12;81.04;101919.09;5094102;28;20246;-76
2023/04/08 10:10:42;;;;;;;23.23;15.73;;;7.90;99.90;;;7.07;81.26;101913.22;5094142;28;20671;-76
2023/04/08 10:13:16;;;;;;;19.27;14.10;;;7.80;99.90;;;7.12;80.62;101911.09;5094329;28;20246;-76
2023/04/08 10:15:48;;;;;;;19.97;13.90;;;7.90;99.90;;;7.18;80.63;101912.47;5094399;28;20193;-76
2023/04/08 10:18:35;;;;;;;21.57;15.07;;;7.90;99.90;;;7.17;80.91;101908.09;5094271;28;20189;-76
2023/04/08 10:21:26;;;;;;;18.90;14.50;;;7.90;99.90;;;7.21;80.37;101910.44;5093787;28;20200;-76
2023/04/08 10:24:05;;;;;;;21.53;15.00;;;7.90;99.90;;;7.23;80.50;101913.81;5093684;28;20205;-76
2023/04/08 10:26:47;;;;;;;19.00;14.43;;;7.90;99.90;;;7.24;80.05;101912.00;5094107;28;20232;-76
2023/04/08 10:29:45;;;;;;;21.70;15.20;;;8.00;99.90;;;7.25;80.49;101914.59;5094074;28;20185;-76
2023/04/08 10:32:42;;;;;;;19.77;14.37;;;8.00;99.90;;;7.30;79.92;101909.75;5093706;28;20707;-76
2023/04/08 10:35:16;;;;;;;21.07;14.80;;;8.00;99.90;;;7.27;80.02;101904.66;5093990;28;20242;-76
2023/04/08 10:37:48;;;;;;;22.30;16.13;;;8.00;99.90;;;7.30;80.46;101915.09;5093904;28;20228;-76
2023/04/08 10:40:24;;;;;;;21.40;15.23;;;8.00;99.90;;;7.32;80.56;101915.84;5093925;28;20193;-76
2023/04/08 10:42:58;;;;;;;19.70;14.57;;;8.00;99.90;;;7.34;80.33;101916.56;5093907;28;20267;-76